Time;durP1;ratioP1;P1;durP2;ratioP2;P2;SDS_P1;SDS_P2;PMS_P1;PMS_P2;Temp;Humidity;BMP_temperature;BMP_pressure;BME280_temperature;BME280_humidity;BME280_pressure;Samples;Min_cycle;Max_cycle;Signal;HPM_P1;HPM_P2
2022/05/16 00:00:18;;;;;;;7.50;2.78;;;6.00;99.90;;;4.66;91.18;101704.59;4948435;28;20031;-77
2022/05/16 00:02:44;;;;;;;14.10;3.55;;;6.00;99.90;;;4.67;92.34;101703.75;4951336;28;20502;-78
2022/05/16 00:05:10;;;;;;;9.80;3.28;;;6.00;99.90;;;4.72;94.10;101706.31;4959555;28;20107;-77
2022/05/16 00:07:37;;;;;;;15.23;4.35;;;6.10;99.90;;;4.77;96.23;101706.28;4954715;28;20074;-78
2022/05/16 00:10:05;;;;;;;6.97;2.72;;;6.10;99.90;;;4.78;96.99;101708.03;4946644;28;20089;-77
2022/05/16 00:12:31;;;;;;;7.97;2.58;;;6.10;99.90;;;4.68;95.64;101708.06;4945233;28;20042;-77
2022/05/16 00:14:56;;;;;;;10.77;3.60;;;6.00;99.90;;;4.59;95.05;101700.31;4952678;28;20039;-77
2022/05/16 00:17:23;;;;;;;11.25;3.47;;;5.90;99.90;;;4.56;94.40;101699.47;4970077;28;20076;-78
2022/05/16 00:19:49;;;;;;;9.38;3.17;;;5.90;99.90;;;4.54;94.96;101694.28;4969159;28;20046;-78
2022/05/16 00:22:14;;;;;;;9.98;3.72;;;5.90;99.90;;;4.56;95.84;101702.97;4945683;28;20450;-78
2022/05/16 00:24:44;;;;;;;11.13;3.83;;;5.90;99.90;;;4.55;98.02;101706.41;4940578;28;20033;-77
2022/05/16 00:27:11;;;;;;;15.45;4.13;;;5.90;99.90;;;4.57;99.68;101706.41;4950280;28;20078;-77
2022/05/16 00:29:38;;;;;;;9.77;3.30;;;5.90;99.90;;;4.59;100.00;101704.66;4952582;28;20019;-77
2022/05/16 00:32:06;;;;;;;11.02;3.63;;;6.00;99.90;;;4.61;100.00;101706.38;4952864;28;20027;-78
2022/05/16 00:34:32;;;;;;;14.02;4.13;;;5.90;99.90;;;4.64;100.00;101710.72;4956009;28;20019;-77
2022/05/16 00:36:58;;;;;;;13.38;4.32;;;6.00;99.90;;;4.64;100.00;101708.09;4953443;28;20045;-78
2022/05/16 00:39:23;;;;;;;10.93;2.85;;;6.00;99.90;;;4.64;100.00;101714.19;4953644;28;20027;-78
2022/05/16 00:41:51;;;;;;;7.22;2.40;;;6.00;99.90;;;4.60;100.00;101715.09;4953291;28;20047;-78
2022/05/16 00:44:20;;;;;;;5.60;1.75;;;5.90;99.90;;;4.47;98.76;101710.81;4948415;28;20027;-77
2022/05/16 00:46:47;;;;;;;5.85;2.63;;;5.80;99.90;;;4.32;96.05;101710.03;4952781;28;20034;-77
2022/05/16 00:49:24;;;;;;;7.68;2.60;;;5.70;99.90;;;4.25;95.05;101713.53;4972859;28;20046;-78
2022/05/16 00:52:09;;;;;;;7.78;2.70;;;5.60;99.90;;;4.20;95.20;101710.09;4960220;28;20061;-78
2022/05/16 00:54:49;;;;;;;9.88;3.65;;;5.60;99.90;;;4.21;96.21;101710.94;4964197;28;20026;-78
2022/05/16 00:57:19;;;;;;;10.00;3.42;;;5.60;99.90;;;4.20;97.61;101707.47;4939040;28;20061;-77
2022/05/16 01:00:08;;;;;;;9.15;3.47;;;5.60;99.90;;;4.25;99.32;101708.31;4958708;28;20066;-77
2022/05/16 01:05:27;;;;;;;10.68;5.35;;;5.60;99.90;;;4.35;100.00;101716.13;4949229;28;20114;-78
2022/05/16 01:07:59;;;;;;;12.60;4.63;;;5.70;99.90;;;4.34;100.00;101714.38;4955426;28;20046;-77
2022/05/16 01:10:25;;;;;;;13.18;5.65;;;5.70;99.90;;;4.32;100.00;101719.59;4956995;28;20054;-78
2022/05/16 01:12:53;;;;;;;6.68;3.70;;;5.60;99.90;;;4.23;100.00;101725.72;4948534;28;20050;-78
2022/05/16 01:15:38;;;;;;;10.50;3.00;;;5.50;99.90;;;4.07;100.00;101717.09;4956946;28;20027;-77
2022/05/16 01:18:06;;;;;;;9.20;2.65;;;5.40;99.90;;;3.87;99.07;101717.16;4959522;28;20139;-78
2022/05/16 01:21:09;;;;;;;11.85;4.53;;;5.20;99.90;;;3.69;97.11;101717.19;4957537;28;20062;-78
2022/05/16 01:24:01;;;;;;;20.33;4.50;;;5.10;99.90;;;3.53;96.07;101721.59;4956524;28;20031;-77
2022/05/16 01:26:30;;;;;;;11.98;4.82;;;5.00;99.90;;;3.49;96.63;101722.44;4961023;28;20035;-77
2022/05/16 01:28:56;;;;;;;10.27;5.28;;;4.90;99.90;;;3.52;97.14;101724.19;4938157;28;20046;-78
2022/05/16 01:31:23;;;;;;;22.95;6.90;;;4.90;99.90;;;3.59;99.26;101718.09;4950720;28;20030;-77
2022/05/16 01:33:48;;;;;;;12.23;6.03;;;5.00;99.90;;;3.67;100.00;101708.53;4945704;28;20038;-78
2022/05/16 01:36:14;;;;;;;16.05;5.97;;;5.10;99.90;;;3.74;100.00;101712.88;4950105;28;20035;-78
2022/05/16 01:38:41;;;;;;;14.68;5.43;;;5.10;99.90;;;3.76;100.00;101711.13;4946448;28;20027;-77
2022/05/16 01:41:13;;;;;;;21.98;6.93;;;5.10;99.90;;;3.81;100.00;101714.56;4941732;28;20113;-78
2022/05/16 01:43:43;;;;;;;248.93;9.23;;;5.20;99.90;;;3.78;100.00;101714.59;4942802;28;20030;-77
2022/05/16 01:46:13;;;;;;;29.73;5.93;;;5.10;99.90;;;3.67;100.00;101713.72;4985166;28;20109;-77
2022/05/16 01:48:39;;;;;;;14.15;5.82;;;5.00;99.90;;;3.60;100.00;101706.81;4943639;28;20039;-78
2022/05/16 01:51:10;;;;;;;16.15;7.10;;;5.00;99.90;;;3.64;100.00;101703.34;4956141;28;20527;-77
2022/05/16 01:53:37;;;;;;;23.27;9.02;;;5.10;99.90;;;3.72;100.00;101696.38;4972169;28;20031;-77
2022/05/16 01:56:04;;;;;;;22.02;7.47;;;5.10;99.90;;;3.83;100.00;101696.34;4958957;28;20029;-78
2022/05/16 01:58:30;;;;;;;28.65;9.00;;;5.20;99.90;;;3.93;100.00;101698.06;4953512;28;20129;-78
2022/05/16 02:00:56;;;;;;;21.77;6.85;;;5.30;99.90;;;4.02;100.00;101694.53;4953013;28;20027;-77
2022/05/16 02:03:22;;;;;;;20.67;7.53;;;5.40;99.90;;;4.11;100.00;101699.72;4951584;28;20455;-78
2022/05/16 02:05:48;;;;;;;24.67;7.85;;;5.50;99.90;;;4.19;100.00;101697.06;4973939;28;20439;-78
2022/05/16 02:08:15;;;;;;;17.15;7.35;;;5.60;99.90;;;4.25;100.00;101703.09;4956204;28;20050;-77
2022/05/16 02:10:45;;;;;;;21.23;7.22;;;5.60;99.90;;;4.30;100.00;101701.34;4957653;28;20027;-77
2022/05/16 02:13:11;;;;;;;21.45;8.00;;;5.60;99.90;;;4.33;100.00;101700.47;4953851;28;20387;-78
2022/05/16 02:15:40;;;;;;;25.80;7.28;;;5.70;99.90;;;4.32;100.00;101699.59;4954404;28;20057;-78
2022/05/16 02:18:08;;;;;;;22.13;7.50;;;5.60;99.90;;;4.29;100.00;101698.75;4972412;28;20035;-78
2022/05/16 02:20:34;;;;;;;21.33;7.82;;;5.70;99.90;;;4.27;100.00;101700.50;4958056;28;20031;-78
2022/05/16 02:25:47;;;;;;;17.27;6.68;;;5.60;99.90;;;4.19;100.00;101692.72;4953321;28;20050;-77
2022/05/16 02:28:16;;;;;;;16.10;6.80;;;5.50;99.90;;;4.12;100.00;101683.19;4955459;28;20473;-77
2022/05/16 02:30:43;;;;;;;13.55;6.32;;;5.50;99.90;;;4.07;100.00;101690.16;4972952;28;20107;-77
2022/05/16 02:33:11;;;;;;;16.17;6.18;;;5.40;99.90;;;4.00;100.00;101699.75;4953975;28;20038;-77
2022/05/16 02:35:37;;;;;;;24.27;6.72;;;5.40;99.90;;;3.94;100.00;101689.34;4954695;28;20034;-77
2022/05/16 02:38:04;;;;;;;9.55;5.78;;;5.30;99.90;;;3.87;100.00;101690.25;4955957;28;20067;-77
2022/05/16 02:40:32;;;;;;;13.07;5.10;;;5.20;99.90;;;3.80;100.00;101689.41;4938706;28;20451;-77
2022/05/16 02:42:58;;;;;;;11.00;5.28;;;5.10;99.90;;;3.72;100.00;101677.28;4956425;28;20026;-77
2022/05/16 02:45:26;;;;;;;11.88;5.15;;;5.00;99.90;;;3.61;100.00;101680.78;4932062;28;20038;-78
2022/05/16 02:47:52;;;;;;;17.92;6.95;;;5.00;99.90;;;3.48;100.00;101677.31;4944916;28;20056;-79
2022/05/16 02:50:23;;;;;;;19.80;6.18;;;4.90;99.90;;;3.52;100.00;101685.13;4955768;28;20023;-78
2022/05/16 02:52:49;;;;;;;19.45;6.97;;;5.00;99.90;;;3.57;100.00;101676.44;4944661;28;22434;-77
2022/05/16 02:55:15;;;;;;;20.20;7.32;;;5.00;99.90;;;3.65;100.00;101674.69;4969343;28;20410;-77
2022/05/16 02:57:41;;;;;;;17.05;7.78;;;5.10;99.90;;;3.76;100.00;101677.25;4971025;28;20043;-77
2022/05/16 03:00:09;;;;;;;16.25;7.05;;;5.20;99.90;;;3.85;100.00;101678.97;4981555;28;20030;-77
2022/05/16 03:02:36;;;;;;;22.73;7.20;;;5.20;99.90;;;3.85;100.00;101686.78;4960336;28;20038;-78
2022/05/16 03:05:03;;;;;;;13.65;6.45;;;5.20;99.90;;;3.86;100.00;101673.72;4972129;28;20092;-77
2022/05/16 03:07:29;;;;;;;23.38;6.78;;;5.20;99.90;;;3.84;100.00;101672.00;4954382;28;20054;-77
2022/05/16 03:09:55;;;;;;;19.02;6.78;;;5.20;99.90;;;3.81;100.00;101674.63;4969411;28;20035;-78
2022/05/16 03:12:21;;;;;;;20.45;6.70;;;5.20;99.90;;;3.80;100.00;101672.88;4959803;28;20043;-78
2022/05/16 03:14:46;;;;;;;16.88;5.93;;;5.10;99.90;;;3.72;100.00;101672.94;4939158;28;20059;-78
2022/05/16 03:17:12;;;;;;;16.85;6.72;;;5.10;99.90;;;3.63;100.00;101666.00;4954157;28;20046;-78
2022/05/16 03:19:38;;;;;;;15.40;6.78;;;5.00;99.90;;;3.60;100.00;101667.75;4953309;28;20039;-78
2022/05/16 03:22:05;;;;;;;12.23;5.85;;;4.90;99.90;;;3.58;100.00;101662.53;4954583;28;20030;-77
2022/05/16 03:24:33;;;;;;;14.95;5.53;;;4.90;99.90;;;3.56;100.00;101666.88;4949184;28;20039;-77
2022/05/16 03:27:00;;;;;;;11.20;4.70;;;4.90;99.90;;;3.53;100.00;101671.25;4946274;28;20043;-77
2022/05/16 03:29:25;;;;;;;14.75;6.47;;;4.80;99.90;;;3.46;100.00;101667.78;4954804;28;20045;-77
2022/05/16 03:31:51;;;;;;;14.55;7.50;;;4.80;99.90;;;3.44;100.00;101675.59;4954559;28;20023;-77
2022/05/16 03:34:17;;;;;;;13.75;6.07;;;4.80;99.90;;;3.47;100.00;101683.38;4943137;28;20044;-78
2022/05/16 03:36:43;;;;;;;11.27;5.57;;;4.90;99.90;;;3.59;100.00;101687.72;4942537;28;20041;-77
2022/05/16 03:41:54;;;;;;;24.08;8.45;;;5.10;99.90;;;3.85;100.00;101682.44;4974330;28;20117;-78
2022/05/16 03:44:20;;;;;;;29.25;8.38;;;5.10;99.90;;;3.95;100.00;101671.97;4963794;28;20031;-78
2022/05/16 03:46:47;;;;;;;15.82;6.50;;;5.20;99.90;;;4.06;100.00;101676.28;4965979;28;20023;-77
2022/05/16 03:49:12;;;;;;;14.10;7.20;;;5.30;99.90;;;4.21;100.00;101679.66;4970096;28;20038;-78
2022/05/16 03:51:39;;;;;;;16.33;6.82;;;5.50;99.90;;;4.36;100.00;101683.94;4953326;28;20105;-78
2022/05/16 03:54:05;;;;;;;20.38;7.93;;;5.60;99.90;;;4.54;100.00;101678.63;4952021;28;20030;-77
2022/05/16 03:56:32;;;;;;;18.02;8.75;;;6.00;99.90;;;5.02;100.00;101676.53;4947448;28;20027;-77
2022/05/16 03:58:58;;;;;;;23.70;8.93;;;7.30;99.90;;;6.65;98.03;101682.50;4950944;28;20045;-79
2022/05/16 04:01:25;;;;;;;15.00;7.32;;;8.90;99.90;;;8.55;92.62;101677.19;4950610;28;20400;-78
2022/05/16 04:03:51;;;;;;;25.42;6.38;;;10.50;99.90;;;10.45;83.31;101689.66;4953383;28;22319;-79
2022/05/16 04:06:18;;;;;;;14.30;6.35;;;12.00;99.90;;;12.09;72.72;101691.16;4938311;28;20314;-79
2022/05/16 04:08:44;;;;;;;16.95;6.18;;;13.20;99.90;;;13.37;64.70;101692.22;4935347;28;20054;-78
2022/05/16 04:11:14;;;;;;;11.93;5.40;;;14.20;99.90;;;14.15;59.26;101687.88;4951922;28;20035;-78
2022/05/16 04:13:41;;;;;;;17.10;5.90;;;15.30;99.90;;;15.58;57.30;101699.44;4947835;28;20043;-79
2022/05/16 04:16:07;;;;;;;12.68;4.40;;;16.30;99.90;;;16.83;54.49;101711.34;4921440;28;20546;-78
2022/05/16 04:18:33;;;;;;;7.45;3.78;;;17.30;99.90;;;18.02;52.04;101719.31;4959501;28;20035;-79
2022/05/16 04:21:00;;;;;;;18.00;4.57;;;18.20;99.90;;;19.00;49.34;101734.38;4961154;28;20038;-79
2022/05/16 04:23:26;;;;;;;26.45;4.20;;;19.10;99.60;;;20.18;46.94;101733.47;4958366;28;20039;-79
2022/05/16 04:25:51;;;;;;;;;;;19.30;99.20;;;21.18;45.73;101749.41;4934371;28;20055;-77
2022/05/16 04:28:17;;;;;;;5.95;3.00;;;20.80;97.60;;;22.16;43.74;101757.94;4951245;28;19924;-78
2022/05/16 04:30:43;;;;;;;5.00;2.90;;;21.60;96.70;;;23.19;42.13;101767.56;4951188;28;20087;-79
2022/05/16 04:33:09;;;;;;;6.20;2.85;;;22.30;95.90;;;24.22;39.84;101794.56;4949766;28;20058;-79
2022/05/16 04:35:36;;;;;;;;;;;22.90;92.90;;;24.88;37.73;101793.25;4955614;28;20034;-80
2022/05/16 04:38:04;;;;;;;7.32;2.75;;;23.60;93.80;;;25.71;37.32;101796.41;4964798;28;19910;-79
2022/05/16 04:40:31;;;;;;;4.07;2.67;;;24.20;95.00;;;26.10;37.07;101801.75;4941305;28;20121;-79
2022/05/16 04:42:58;;;;;;;8.10;3.28;;;24.70;94.30;;;26.97;35.89;101808.56;4944945;28;20035;-79
2022/05/16 04:45:30;;;;;;;10.75;3.30;;;25.30;91.80;;;27.67;34.83;101822.25;4947271;28;20051;-80
2022/05/16 04:48:00;;;;;;;7.90;3.70;;;25.90;92.00;;;28.55;34.15;101822.16;4960125;28;20522;-80
2022/05/16 04:50:31;;;;;;;8.68;3.10;;;26.40;90.30;;;29.16;32.77;101820.16;4950314;28;20023;-80
2022/05/16 04:52:58;;;;;;;9.30;3.60;;;26.90;90.40;;;29.69;32.09;101836.09;4932217;28;20035;-80
2022/05/16 04:55:25;;;;;;;9.25;3.60;;;27.30;89.50;;;30.18;31.35;101839.63;4943577;28;20022;-79
2022/05/16 04:57:51;;;;;;;9.98;3.75;;;27.80;89.80;;;30.73;31.18;101839.78;4923904;28;20097;-80
2022/05/16 05:00:20;;;;;;;9.35;3.45;;;28.30;86.20;;;31.28;30.22;101838.78;4943004;28;20027;-80
2022/05/16 05:02:46;;;;;;;11.93;3.30;;;28.40;82.70;;;31.13;30.12;101846.88;4949669;28;20051;-79
2022/05/16 05:05:14;;;;;;;7.70;3.40;;;28.50;84.10;;;31.33;30.11;101847.25;4952375;28;20031;-79
2022/05/16 05:07:40;;;;;;;7.63;3.22;;;28.90;88.00;;;31.98;29.85;101850.50;4950088;28;20078;-79
2022/05/16 05:15:39;;;;;;;13.70;3.80;;;30.70;86.30;;;34.98;28.97;101875.25;4948772;28;20034;-79
2022/05/16 05:18:06;;;;;;;11.13;4.05;;;31.20;84.00;;;35.41;26.38;101886.72;4950062;28;20105;-81
2022/05/16 05:20:33;;;;;;;8.90;3.88;;;31.80;82.90;;;36.08;25.58;101892.25;4945224;28;20710;-79
2022/05/16 05:23:00;;;;;;;7.97;3.80;;;32.40;81.50;;;36.54;24.50;101892.13;4946514;28;20043;-80
2022/05/16 05:25:28;;;;;;;9.85;4.03;;;32.90;79.40;;;37.11;24.17;101914.34;4935427;28;20034;-81
2022/05/16 05:27:55;;;;;;;9.50;4.28;;;33.20;79.30;;;37.57;23.78;101915.13;4933896;28;20035;-80
2022/05/16 05:30:25;;;;;;;14.57;4.75;;;33.50;78.30;;;37.26;24.63;101922.28;4933811;28;20089;-78
2022/05/16 05:32:52;;;;;;;8.80;3.78;;;33.80;77.70;;;37.84;23.98;101923.13;4957564;28;20423;-81
2022/05/16 05:35:20;;;;;;;12.55;3.90;;;34.20;77.60;;;38.24;23.46;101928.31;4954081;28;20109;-80
2022/05/16 05:37:46;;;;;;;12.57;4.20;;;34.50;75.70;;;38.65;23.02;101929.56;4938799;28;20063;-81
2022/05/16 05:40:13;;;;;;;9.00;3.90;;;34.70;75.60;;;38.69;22.80;101945.38;4945072;28;20054;-80
2022/05/16 05:42:40;;;;;;;11.68;4.10;;;34.90;75.20;;;39.03;22.73;101947.72;4946059;28;20054;-81
2022/05/16 05:45:10;;;;;;;18.58;4.10;;;35.10;71.40;;;39.06;22.65;101952.78;4946557;28;20030;-79
2022/05/16 05:47:37;;;;;;;15.18;4.35;;;35.00;70.80;;;38.38;23.14;101954.56;4936487;28;20027;-78
2022/05/16 05:50:05;;;;;;;11.90;3.97;;;34.60;67.80;;;37.09;23.77;101948.56;4965205;28;20050;-78
2022/05/16 05:52:32;;;;;;;11.65;3.85;;;34.10;68.10;;;36.30;24.19;101944.94;4959537;28;21218;-80
2022/05/16 05:54:58;;;;;;;15.05;4.15;;;33.80;71.60;;;36.64;24.26;101948.50;4948666;28;20036;-81
2022/05/16 05:57:25;;;;;;;15.55;3.60;;;33.20;68.90;;;35.13;24.79;101947.09;4952229;28;20042;-81
2022/05/16 05:59:56;;;;;;;15.63;3.47;;;32.70;72.50;;;35.56;25.22;101937.75;4951959;28;20022;-80
2022/05/16 06:02:23;;;;;;;10.15;3.17;;;32.10;69.70;;;34.02;25.70;101936.91;4931341;28;20031;-80
2022/05/16 06:04:49;;;;;;;13.75;3.45;;;32.20;71.90;;;34.00;26.22;101927.25;4954943;28;20019;-80
2022/05/16 06:07:15;;;;;;;11.48;3.50;;;32.10;71.60;;;34.36;25.65;101929.81;4946449;28;20028;-80
2022/05/16 06:09:41;;;;;;;16.00;3.20;;;31.80;70.90;;;33.23;26.85;101936.97;4943113;28;20027;-79
2022/05/16 06:12:09;;;;;;;11.13;3.13;;;31.70;72.70;;;33.49;26.50;101926.31;4956334;28;20102;-80
2022/05/16 06:14:35;;;;;;;10.75;3.05;;;31.50;70.50;;;33.56;26.40;101936.47;4937571;28;20035;-79
2022/05/16 06:17:01;;;;;;;9.70;3.00;;;31.20;69.20;;;32.52;26.56;101950.22;4970651;28;20015;-79
2022/05/16 06:19:27;;;;;;;10.55;3.00;;;31.10;70.90;;;32.75;27.16;101937.38;4947508;28;20114;-80
2022/05/16 06:21:53;;;;;;;13.43;3.60;;;31.30;69.60;;;33.11;26.10;101931.13;4938191;28;20031;-78
2022/05/16 06:27:06;;;;;;;12.10;3.47;;;31.40;71.00;;;32.46;26.89;101933.59;4944898;28;20032;-79
2022/05/16 06:29:32;;;;;;;9.70;3.33;;;31.70;72.10;;;33.62;26.07;101922.91;4953498;28;20109;-80
2022/05/16 06:31:58;;;;;;;13.80;3.03;;;31.50;70.40;;;31.94;27.07;101931.69;4966512;28;20026;-82
2022/05/16 06:34:24;;;;;;;12.77;3.72;;;30.60;70.70;;;30.71;28.92;101907.91;4940728;28;20038;-80
2022/05/16 06:36:49;;;;;;;13.77;3.35;;;30.10;71.70;;;30.41;29.30;101912.25;4985836;28;20145;-79
2022/05/16 06:39:15;;;;;;;10.77;3.17;;;30.10;71.70;;;31.26;28.19;101917.88;4951499;28;20042;-80
2022/05/16 06:41:42;;;;;;;14.88;3.58;;;30.10;72.50;;;31.46;27.68;101901.09;4943518;28;20118;-80
2022/05/16 06:44:09;;;;;;;14.65;3.30;;;30.60;73.20;;;32.35;27.46;101917.69;4938033;28;20042;-81
2022/05/16 06:46:35;;;;;;;14.27;3.17;;;30.80;68.70;;;31.64;27.07;101919.84;4943239;28;20050;-79
2022/05/16 06:49:01;;;;;;;15.15;3.38;;;31.00;69.60;;;32.14;27.07;101913.00;4934279;28;20030;-79
2022/05/16 06:51:26;;;;;;;14.73;3.38;;;31.10;71.50;;;32.01;27.23;101919.06;4944623;28;20492;-80
2022/05/16 06:53:52;;;;;;;10.48;3.00;;;30.90;69.60;;;31.22;28.15;101904.81;4959215;28;20046;-78
2022/05/16 06:56:18;;;;;;;10.32;2.72;;;30.40;70.30;;;30.21;29.49;101906.31;4969652;28;20039;-80
2022/05/16 06:58:47;;;;;;;9.63;2.97;;;30.40;72.00;;;30.58;28.60;101886.72;4936506;28;20499;-79
2022/05/16 07:01:12;;;;;;;12.55;3.90;;;30.20;70.60;;;30.62;28.92;101901.66;4926508;28;20039;-79
2022/05/16 07:03:40;;;;;;;10.80;2.90;;;30.50;71.80;;;31.57;28.11;101899.84;4944730;28;20167;-79
2022/05/16 07:06:06;;;;;;;13.48;3.28;;;31.00;68.60;;;31.12;27.70;101898.75;4937830;28;20026;-80
2022/05/16 07:08:33;;;;;;;10.63;2.90;;;31.00;70.10;;;31.39;28.20;101897.38;4934135;28;20034;-80
2022/05/16 07:10:59;;;;;;;11.82;3.17;;;31.20;69.80;;;31.67;27.30;101890.38;4985607;28;20071;-80
2022/05/16 07:13:29;;;;;;;10.95;2.90;;;31.40;68.10;;;31.65;26.75;101905.22;4932784;28;20047;-79
2022/05/16 07:15:55;;;;;;;12.10;3.28;;;31.30;68.20;;;31.40;27.49;101901.78;4942946;28;20523;-80
2022/05/16 07:18:23;;;;;;;10.70;3.05;;;31.10;67.10;;;30.71;27.90;101909.78;4943012;28;20507;-78
2022/05/16 07:20:49;;;;;;;10.10;2.50;;;30.00;68.20;;;28.48;30.74;101901.50;4945220;28;20031;-78
2022/05/16 07:23:16;;;;;;;13.82;2.50;;;29.70;70.30;;;28.87;30.43;101880.19;4935012;28;20123;-78
2022/05/16 07:28:28;;;;;;;;;;;29.60;72.50;;;30.11;29.74;101870.34;4945742;28;20046;-80
2022/05/16 07:30:54;;;;;;;10.83;2.70;;;29.40;68.90;;;28.52;30.19;101883.94;4968160;28;19918;-79
2022/05/16 07:33:20;;;;;;;8.07;2.42;;;29.40;71.90;;;29.36;29.96;101874.09;4935435;28;20042;-78
2022/05/16 07:35:52;;;;;;;7.38;2.60;;;29.70;72.00;;;30.07;29.38;101874.47;4950570;28;20475;-78
2022/05/16 07:38:20;;;;;;;9.35;2.67;;;30.20;71.60;;;30.93;28.18;101883.72;4951901;28;20126;-78
2022/05/16 07:40:46;;;;;;;8.82;2.60;;;30.80;72.00;;;31.55;27.64;101883.69;4952885;28;20043;-78
2022/05/16 07:43:12;;;;;;;8.68;2.50;;;30.70;66.90;;;29.56;29.15;101890.88;4953290;28;20034;-78
2022/05/16 07:45:38;;;;;;;14.15;2.90;;;29.90;71.00;;;29.13;30.24;101877.41;4953267;28;20487;-78
2022/05/16 07:48:04;;;;;;;12.00;3.10;;;29.70;71.70;;;29.25;30.61;101867.13;4941965;28;20027;-81
2022/05/16 07:50:36;;;;;;;10.43;2.20;;;29.70;70.50;;;29.54;29.67;101869.34;4931895;28;20523;-81
2022/05/16 07:53:04;;;;;;;9.35;2.30;;;29.50;69.40;;;28.24;30.21;101878.66;4946875;28;20043;-80
2022/05/16 07:55:31;;;;;;;11.20;2.58;;;28.80;70.50;;;27.60;31.63;101869.88;4947379;28;20019;-79
2022/05/16 07:57:57;;;;;;;10.48;2.97;;;;;;;27.66;31.43;101858.41;4950709;28;20043;-81
2022/05/16 08:00:24;;;;;;;13.18;2.53;;;28.00;70.60;;;27.08;32.00;101856.16;4942802;28;20030;-79
2022/05/16 08:02:51;;;;;;;9.05;2.53;;;27.80;71.70;;;27.26;31.87;101859.75;4942338;28;20023;-80
2022/05/16 08:05:18;;;;;;;7.60;2.38;;;27.50;73.90;;;27.26;32.63;101850.78;4947447;28;20037;-80
2022/05/16 08:10:32;;;;;;;11.93;2.72;;;27.50;76.60;;;27.62;33.12;101854.31;4948859;28;20037;-80
2022/05/16 08:13:10;;;;;;;9.10;3.03;;;27.80;75.20;;;27.82;32.02;101852.31;4953288;28;21106;-80
2022/05/16 08:15:38;;;;;;;7.85;2.45;;;27.90;75.40;;;28.13;31.87;101850.00;4934020;28;20039;-80
2022/05/16 08:18:09;;;;;;;10.02;2.70;;;28.10;77.40;;;28.23;33.51;101841.78;4925540;28;20071;-79
2022/05/16 08:20:37;;;;;;;9.63;2.58;;;28.10;76.70;;;28.09;32.34;101850.50;4967291;28;20034;-79
2022/05/16 08:23:04;;;;;;;8.73;2.20;;;28.20;75.40;;;28.15;31.57;101855.28;4928525;28;20992;-81
2022/05/16 08:25:30;;;;;;;7.00;2.28;;;27.90;71.20;;;27.14;32.09;101856.38;4935743;28;20035;-81
2022/05/16 08:27:56;;;;;;;9.35;2.10;;;27.70;72.30;;;27.43;31.43;101868.91;4935893;28;20116;-80
2022/05/16 08:30:24;;;;;;;6.22;2.22;;;27.60;71.80;;;27.42;32.05;101859.06;4977699;28;20035;-80
2022/05/16 08:32:50;;;;;;;12.10;2.22;;;27.50;73.20;;;27.28;31.85;101860.47;4924272;28;20173;-80
2022/05/16 08:35:19;;;;;;;7.93;2.20;;;27.40;72.20;;;26.87;32.21;101853.72;4945722;23;20556;-75
2022/05/16 08:41:02;;;;;;;7.57;2.60;;;26.50;75.70;;;25.58;35.35;101838.00;4908787;28;20416;-76
2022/05/16 08:43:51;;;;;;;8.00;2.10;;;26.00;76.50;;;25.16;35.32;101827.47;4923060;28;20031;-75
2022/05/16 08:46:38;;;;;;;7.07;2.42;;;25.60;76.20;;;24.28;36.67;101825.50;4922813;28;20067;-75
2022/05/16 08:49:33;;;;;;;7.28;2.22;;;25.20;77.80;;;24.16;36.88;101816.63;4916441;28;20118;-75
2022/05/16 08:52:28;;;;;;;8.45;2.30;;;24.70;77.70;;;23.69;37.67;101806.28;4936876;28;20028;-75
2022/05/16 08:55:28;;;;;;;9.60;2.20;;;24.30;80.40;;;22.99;39.02;101783.47;4922405;28;20062;-75
2022/05/16 08:58:24;;;;;;;10.95;2.50;;;24.00;82.30;;;23.37;40.21;101778.56;4918693;28;20046;-75
2022/05/16 09:01:00;;;;;;;7.20;2.15;;;24.00;80.50;;;23.48;38.80;101783.91;4914323;28;20071;-76
2022/05/16 09:04:20;;;;;;;9.93;2.45;;;23.70;82.20;;;22.65;40.09;101791.59;4935142;28;20028;-75
2022/05/16 09:07:20;;;;;;;10.18;2.30;;;23.30;81.90;;;22.52;40.37;101775.63;4931955;28;20028;-75
2022/05/16 09:10:05;;;;;;;10.20;2.53;;;23.40;83.30;;;22.78;40.08;101774.47;4923564;28;20042;-75
2022/05/16 09:13:14;;;;;;;10.95;2.60;;;23.50;83.30;;;23.34;38.75;101777.00;4913296;28;20035;-74
2022/05/16 09:16:26;;;;;;;9.95;2.63;;;23.80;82.50;;;23.64;38.95;101773.53;4930975;28;20035;-75
2022/05/16 09:19:48;;;;;;;7.80;2.10;;;24.00;82.00;;;23.17;38.61;101775.72;4892278;28;20515;-75
2022/05/16 09:22:50;;;;;;;6.13;1.92;;;23.90;81.40;;;23.39;38.52;101774.81;4939248;28;20039;-75
2022/05/16 09:25:28;;;;;;;7.45;2.28;;;23.60;82.50;;;22.88;39.72;101765.56;4928528;28;20108;-75
2022/05/16 09:30:48;;;;;;;10.00;2.63;;;23.50;82.30;;;22.88;39.35;101754.81;4940287;28;20042;-75
2022/05/16 09:33:28;;;;;;;10.55;2.50;;;23.50;83.70;;;23.20;39.64;101740.56;4905988;28;20028;-76
2022/05/16 09:36:14;;;;;;;8.25;2.05;;;23.60;82.70;;;22.87;39.36;101731.63;4939499;28;21511;-75
2022/05/16 09:38:44;;;;;;;6.18;2.00;;;23.40;81.20;;;22.55;39.81;101730.72;4923657;28;20101;-74
2022/05/16 09:41:34;;;;;;;9.90;2.25;;;23.30;83.60;;;22.99;39.88;101729.75;4923374;28;20047;-75
2022/05/16 09:44:30;;;;;;;10.73;2.28;;;23.50;83.20;;;22.75;40.50;101721.91;4936772;28;20066;-75
2022/05/16 09:47:29;;;;;;;8.18;1.95;;;23.30;83.40;;;21.96;40.98;101713.06;4916649;28;20114;-74
2022/05/16 09:50:20;;;;;;;6.25;1.92;;;23.00;85.70;;;22.36;42.06;101717.97;4937538;28;20027;-74
2022/05/16 09:53:09;;;;;;;8.82;2.10;;;23.10;81.30;;;22.41;39.71;101727.34;4936627;28;20480;-74
2022/05/16 09:55:46;;;;;;;10.93;2.05;;;22.90;79.10;;;22.39;38.63;101715.03;4934150;28;20141;-74
2022/05/16 09:58:13;;;;;;;6.63;2.03;;;23.20;79.80;;;22.80;38.92;101719.69;4923572;28;20044;-74
2022/05/16 10:00:58;;;;;;;6.43;2.10;;;23.20;81.30;;;22.75;38.79;101715.69;4927521;28;20539;-74
2022/05/16 10:03:48;;;;;;;5.80;1.77;;;23.20;76.90;;;22.63;36.49;101736.31;4935202;28;20040;-75
2022/05/16 10:06:36;;;;;;;9.90;2.45;;;23.30;79.10;;;22.71;38.04;101734.72;4925828;28;20060;-74
2022/05/16 10:09:14;;;;;;;6.32;1.88;;;23.40;79.30;;;22.90;37.92;101742.09;4937733;28;20445;-74
2022/05/16 10:11:45;;;;;;;7.93;1.77;;;23.30;80.90;;;22.69;38.23;101738.50;4914907;28;20449;-76
2022/05/16 10:14:20;;;;;;;6.05;2.33;;;23.20;79.30;;;22.47;38.16;101729.53;4897188;28;20035;-76
2022/05/16 10:16:51;;;;;;;9.38;2.50;;;23.30;81.50;;;22.94;38.63;101742.72;4928129;28;20467;-76
2022/05/16 10:19:28;;;;;;;8.98;2.40;;;23.50;79.90;;;23.28;37.91;101745.28;4915990;28;20032;-76
2022/05/16 10:22:07;;;;;;;10.95;2.47;;;23.70;80.80;;;23.42;38.04;101741.44;4927484;28;20039;-74
2022/05/16 10:24:52;;;;;;;7.60;2.28;;;23.90;79.70;;;23.63;37.34;101744.97;4924922;28;20115;-74
2022/05/16 10:27:34;;;;;;;7.30;2.38;;;23.60;80.00;;;22.97;38.39;101737.06;4920898;28;20042;-73
2022/05/16 10:30:21;;;;;;;8.77;2.45;;;23.50;80.80;;;22.74;38.87;101725.53;4929956;28;20027;-74
2022/05/16 10:36:25;;;;;;;7.88;2.38;;;23.60;81.00;;;23.15;38.38;101726.66;4922777;28;20632;-73
2022/05/16 10:39:15;;;;;;;12.18;2.92;;;23.70;84.20;;;23.59;39.27;101721.19;4921841;28;20043;-74
2022/05/16 10:42:10;;;;;;;5.80;2.20;;;23.80;81.30;;;23.21;38.97;101722.59;4915291;28;20463;-74
2022/05/16 10:44:52;;;;;;;13.65;2.58;;;24.10;81.60;;;23.46;39.09;101716.84;4934852;28;20085;-75
2022/05/16 10:47:42;;;;;;;7.68;2.25;;;24.30;80.20;;;23.47;38.71;101702.41;4920660;28;20035;-75
2022/05/16 10:50:23;;;;;;;10.70;2.30;;;24.20;80.80;;;23.32;39.42;101699.19;4921255;28;20027;-75
2022/05/16 10:53:16;;;;;;;10.60;2.20;;;24.20;80.50;;;23.62;39.01;101699.38;4933680;28;20055;-75
2022/05/16 10:56:34;;;;;;;8.75;2.35;;;24.30;81.20;;;23.62;39.54;101689.47;4912843;28;20249;-74
2022/05/16 10:59:44;;;;;;;7.13;2.10;;;24.30;80.90;;;23.76;38.20;101685.63;4934090;28;20047;-75
2022/05/16 11:02:50;;;;;;;6.85;1.90;;;23.70;80.60;;;22.46;39.26;101692.06;4902733;28;20033;-75